sensor_id;sensor_type;location;lat;lon;timestamp;P1;durP1;ratioP1;P2;durP2;ratioP2
22046;SDS011;11187;49.412;20.956;2022-08-21T00:00:43;26.83;;;24.42;;
22046;SDS011;11187;49.412;20.956;2022-08-21T00:03:16;27.63;;;25.00;;
22046;SDS011;11187;49.412;20.956;2022-08-21T00:06:03;27.88;;;25.02;;
22046;SDS011;11187;49.412;20.956;2022-08-21T00:08:39;28.17;;;24.92;;
22046;SDS011;11187;49.412;20.956;2022-08-21T00:11:34;27.23;;;24.52;;
22046;SDS011;11187;49.412;20.956;2022-08-21T00:14:08;28.52;;;25.88;;
22046;SDS011;11187;49.412;20.956;2022-08-21T00:16:55;27.20;;;24.55;;
22046;SDS011;11187;49.412;20.956;2022-08-21T00:19:29;27.40;;;24.80;;
22046;SDS011;11187;49.412;20.956;2022-08-21T00:22:23;26.30;;;23.83;;
22046;SDS011;11187;49.412;20.956;2022-08-21T00:25:17;26.35;;;23.65;;
22046;SDS011;11187;49.412;20.956;2022-08-21T00:27:52;29.45;;;25.35;;
22046;SDS011;11187;49.412;20.956;2022-08-21T00:30:46;28.27;;;24.33;;
22046;SDS011;11187;49.412;20.956;2022-08-21T00:33:40;27.58;;;25.10;;
22046;SDS011;11187;49.412;20.956;2022-08-21T00:36:15;28.27;;;25.52;;
22046;SDS011;11187;49.412;20.956;2022-08-21T00:39:03;26.52;;;23.63;;
22046;SDS011;11187;49.412;20.956;2022-08-21T00:41:38;26.65;;;24.05;;
22046;SDS011;11187;49.412;20.956;2022-08-21T00:44:26;26.02;;;23.88;;
22046;SDS011;11187;49.412;20.956;2022-08-21T00:47:00;26.10;;;23.50;;
22046;SDS011;11187;49.412;20.956;2022-08-21T00:49:46;26.17;;;23.85;;
22046;SDS011;11187;49.412;20.956;2022-08-21T00:52:21;27.55;;;24.67;;
22046;SDS011;11187;49.412;20.956;2022-08-21T00:55:10;28.25;;;25.70;;
22046;SDS011;11187;49.412;20.956;2022-08-21T00:57:47;28.98;;;26.45;;
22046;SDS011;11187;49.412;20.956;2022-08-21T01:00:48;25.73;;;23.27;;
22046;SDS011;11187;49.412;20.956;2022-08-21T01:03:25;26.85;;;24.13;;
22046;SDS011;11187;49.412;20.956;2022-08-21T01:06:13;29.17;;;26.35;;
22046;SDS011;11187;49.412;20.956;2022-08-21T01:08:47;27.40;;;24.65;;
22046;SDS011;11187;49.412;20.956;2022-08-21T01:11:34;28.77;;;26.08;;
22046;SDS011;11187;49.412;20.956;2022-08-21T01:14:09;28.88;;;26.30;;
22046;SDS011;11187;49.412;20.956;2022-08-21T01:16:50;27.63;;;24.88;;
22046;SDS011;11187;49.412;20.956;2022-08-21T01:19:31;28.08;;;24.85;;
22046;SDS011;11187;49.412;20.956;2022-08-21T01:22:18;27.70;;;24.95;;
22046;SDS011;11187;49.412;20.956;2022-08-21T01:25:13;27.30;;;24.52;;
22046;SDS011;11187;49.412;20.956;2022-08-21T01:27:49;28.27;;;25.45;;
22046;SDS011;11187;49.412;20.956;2022-08-21T01:30:35;29.48;;;26.83;;
22046;SDS011;11187;49.412;20.956;2022-08-21T01:33:11;28.30;;;25.85;;
22046;SDS011;11187;49.412;20.956;2022-08-21T01:35:57;28.80;;;26.05;;
22046;SDS011;11187;49.412;20.956;2022-08-21T01:38:33;27.67;;;25.35;;
22046;SDS011;11187;49.412;20.956;2022-08-21T01:41:20;27.13;;;24.63;;
22046;SDS011;11187;49.412;20.956;2022-08-21T01:43:53;28.60;;;26.05;;
22046;SDS011;11187;49.412;20.956;2022-08-21T01:46:40;28.65;;;24.88;;
22046;SDS011;11187;49.412;20.956;2022-08-21T01:49:14;28.23;;;25.73;;
22046;SDS011;11187;49.412;20.956;2022-08-21T01:52:01;28.33;;;25.73;;
22046;SDS011;11187;49.412;20.956;2022-08-21T01:54:36;28.48;;;26.17;;
22046;SDS011;11187;49.412;20.956;2022-08-21T01:57:34;29.48;;;26.40;;
22046;SDS011;11187;49.412;20.956;2022-08-21T02:00:28;27.80;;;25.17;;
22046;SDS011;11187;49.412;20.956;2022-08-21T02:03:02;28.27;;;25.73;;
22046;SDS011;11187;49.412;20.956;2022-08-21T02:06:14;27.83;;;25.27;;
22046;SDS011;11187;49.412;20.956;2022-08-21T02:09:09;26.73;;;24.42;;
22046;SDS011;11187;49.412;20.956;2022-08-21T02:11:45;28.80;;;26.27;;
22046;SDS011;11187;49.412;20.956;2022-08-21T02:14:32;26.38;;;23.88;;
22046;SDS011;11187;49.412;20.956;2022-08-21T02:17:06;25.92;;;23.48;;
22046;SDS011;11187;49.412;20.956;2022-08-21T02:19:52;28.00;;;24.05;;
22046;SDS011;11187;49.412;20.956;2022-08-21T02:22:25;27.50;;;24.67;;
22046;SDS011;11187;49.412;20.956;2022-08-21T02:25:12;27.80;;;25.25;;
22046;SDS011;11187;49.412;20.956;2022-08-21T02:27:46;26.67;;;24.08;;
22046;SDS011;11187;49.412;20.956;2022-08-21T02:30:34;25.15;;;22.95;;
22046;SDS011;11187;49.412;20.956;2022-08-21T02:33:13;28.33;;;25.25;;
22046;SDS011;11187;49.412;20.956;2022-08-21T02:36:03;26.83;;;24.23;;
22046;SDS011;11187;49.412;20.956;2022-08-21T02:38:37;26.05;;;23.73;;
22046;SDS011;11187;49.412;20.956;2022-08-21T02:41:25;27.63;;;25.02;;
22046;SDS011;11187;49.412;20.956;2022-08-21T02:43:59;28.70;;;25.70;;
22046;SDS011;11187;49.412;20.956;2022-08-21T02:46:45;27.58;;;24.92;;
22046;SDS011;11187;49.412;20.956;2022-08-21T02:49:19;28.33;;;25.58;;
22046;SDS011;11187;49.412;20.956;2022-08-21T02:52:05;27.52;;;24.90;;
22046;SDS011;11187;49.412;20.956;2022-08-21T02:54:39;25.98;;;23.27;;
22046;SDS011;11187;49.412;20.956;2022-08-21T02:57:25;26.10;;;23.42;;
22046;SDS011;11187;49.412;20.956;2022-08-21T02:59:59;25.77;;;23.52;;
22046;SDS011;11187;49.412;20.956;2022-08-21T03:02:45;26.48;;;24.17;;
22046;SDS011;11187;49.412;20.956;2022-08-21T03:05:19;27.35;;;24.65;;
22046;SDS011;11187;49.412;20.956;2022-08-21T03:08:13;26.88;;;24.30;;
22046;SDS011;11187;49.412;20.956;2022-08-21T03:11:08;28.02;;;25.13;;
22046;SDS011;11187;49.412;20.956;2022-08-21T03:13:42;26.95;;;24.30;;
22046;SDS011;11187;49.412;20.956;2022-08-21T03:16:28;26.85;;;24.20;;
22046;SDS011;11187;49.412;20.956;2022-08-21T03:19:02;28.00;;;25.40;;
22046;SDS011;11187;49.412;20.956;2022-08-21T03:21:55;26.75;;;24.05;;
22046;SDS011;11187;49.412;20.956;2022-08-21T03:24:49;25.05;;;22.95;;
22046;SDS011;11187;49.412;20.956;2022-08-21T03:27:45;25.42;;;21.88;;
22046;SDS011;11187;49.412;20.956;2022-08-21T03:30:24;27.85;;;25.23;;
22046;SDS011;11187;49.412;20.956;2022-08-21T03:33:18;27.52;;;24.80;;
22046;SDS011;11187;49.412;20.956;2022-08-21T03:36:13;27.90;;;25.33;;
22046;SDS011;11187;49.412;20.956;2022-08-21T03:39:07;28.63;;;25.70;;
22046;SDS011;11187;49.412;20.956;2022-08-21T03:41:41;27.27;;;24.48;;
22046;SDS011;11187;49.412;20.956;2022-08-21T03:44:34;27.50;;;24.60;;
22046;SDS011;11187;49.412;20.956;2022-08-21T03:47:28;25.63;;;23.17;;
22046;SDS011;11187;49.412;20.956;2022-08-21T03:50:03;27.02;;;24.52;;
22046;SDS011;11187;49.412;20.956;2022-08-21T03:52:50;27.55;;;24.65;;
22046;SDS011;11187;49.412;20.956;2022-08-21T03:55:25;26.95;;;24.45;;
22046;SDS011;11187;49.412;20.956;2022-08-21T03:58:20;25.25;;;23.05;;
22046;SDS011;11187;49.412;20.956;2022-08-21T04:00:56;26.92;;;24.38;;
22046;SDS011;11187;49.412;20.956;2022-08-21T04:03:45;25.92;;;23.55;;
22046;SDS011;11187;49.412;20.956;2022-08-21T04:06:19;26.17;;;23.65;;
22046;SDS011;11187;49.412;20.956;2022-08-21T04:09:05;25.08;;;22.52;;
22046;SDS011;11187;49.412;20.956;2022-08-21T04:11:39;26.77;;;24.35;;
22046;SDS011;11187;49.412;20.956;2022-08-21T04:14:26;27.63;;;24.95;;
22046;SDS011;11187;49.412;20.956;2022-08-21T04:17:00;28.45;;;25.65;;
22046;SDS011;11187;49.412;20.956;2022-08-21T04:19:46;27.52;;;24.77;;
22046;SDS011;11187;49.412;20.956;2022-08-21T04:22:20;26.27;;;23.85;;
22046;SDS011;11187;49.412;20.956;2022-08-21T04:25:06;28.38;;;25.23;;
22046;SDS011;11187;49.412;20.956;2022-08-21T04:27:40;27.15;;;24.70;;
22046;SDS011;11187;49.412;20.956;2022-08-21T04:30:27;26.15;;;23.45;;
22046;SDS011;11187;49.412;20.956;2022-08-21T04:33:01;25.38;;;22.77;;
22046;SDS011;11187;49.412;20.956;2022-08-21T04:35:48;26.50;;;23.95;;
22046;SDS011;11187;49.412;20.956;2022-08-21T04:38:22;26.27;;;23.00;;
22046;SDS011;11187;49.412;20.956;2022-08-21T04:41:21;26.63;;;24.13;;
22046;SDS011;11187;49.412;20.956;2022-08-21T04:43:55;27.15;;;24.55;;
22046;SDS011;11187;49.412;20.956;2022-08-21T04:46:41;27.83;;;25.02;;
22046;SDS011;11187;49.412;20.956;2022-08-21T04:49:15;31.02;;;27.20;;
22046;SDS011;11187;49.412;20.956;2022-08-21T04:52:01;29.73;;;26.73;;
22046;SDS011;11187;49.412;20.956;2022-08-21T04:54:35;29.85;;;25.25;;
22046;SDS011;11187;49.412;20.956;2022-08-21T04:57:33;28.02;;;25.20;;
22046;SDS011;11187;49.412;20.956;2022-08-21T05:00:27;27.17;;;24.63;;
22046;SDS011;11187;49.412;20.956;2022-08-21T05:03:01;28.05;;;25.27;;
22046;SDS011;11187;49.412;20.956;2022-08-21T05:05:49;37.50;;;28.48;;
22046;SDS011;11187;49.412;20.956;2022-08-21T05:08:23;32.92;;;28.10;;
22046;SDS011;11187;49.412;20.956;2022-08-21T05:11:13;34.83;;;28.30;;
22046;SDS011;11187;49.412;20.956;2022-08-21T05:13:47;32.75;;;27.33;;
22046;SDS011;11187;49.412;20.956;2022-08-21T05:16:42;33.85;;;28.60;;
22046;SDS011;11187;49.412;20.956;2022-08-21T05:19:36;36.80;;;28.02;;
22046;SDS011;11187;49.412;20.956;2022-08-21T05:22:10;34.97;;;29.55;;
22046;SDS011;11187;49.412;20.956;2022-08-21T05:25:05;33.72;;;28.63;;
22046;SDS011;11187;49.412;20.956;2022-08-21T05:27:39;39.33;;;28.15;;
22046;SDS011;11187;49.412;20.956;2022-08-21T05:30:26;32.72;;;28.83;;
22046;SDS011;11187;49.412;20.956;2022-08-21T05:33:00;36.70;;;29.55;;
22046;SDS011;11187;49.412;20.956;2022-08-21T05:35:50;30.23;;;26.20;;
22046;SDS011;11187;49.412;20.956;2022-08-21T05:38:25;35.20;;;28.20;;
22046;SDS011;11187;49.412;20.956;2022-08-21T05:41:19;33.13;;;29.23;;
22046;SDS011;11187;49.412;20.956;2022-08-21T05:44:14;35.85;;;30.85;;
22046;SDS011;11187;49.412;20.956;2022-08-21T05:47:09;33.78;;;29.52;;
22046;SDS011;11187;49.412;20.956;2022-08-21T05:50:04;40.85;;;33.08;;
22046;SDS011;11187;49.412;20.956;2022-08-21T05:52:38;37.17;;;30.60;;
22046;SDS011;11187;49.412;20.956;2022-08-21T05:55:36;37.05;;;29.90;;
22046;SDS011;11187;49.412;20.956;2022-08-21T05:58:15;33.10;;;27.38;;
22046;SDS011;11187;49.412;20.956;2022-08-21T06:01:06;36.05;;;29.38;;
22046;SDS011;11187;49.412;20.956;2022-08-21T06:03:42;34.58;;;30.80;;
22046;SDS011;11187;49.412;20.956;2022-08-21T06:06:28;33.40;;;29.92;;
22046;SDS011;11187;49.412;20.956;2022-08-21T06:09:02;31.85;;;28.45;;
22046;SDS011;11187;49.412;20.956;2022-08-21T06:11:49;31.63;;;28.10;;
22046;SDS011;11187;49.412;20.956;2022-08-21T06:14:23;37.08;;;28.27;;
22046;SDS011;11187;49.412;20.956;2022-08-21T06:17:10;35.83;;;30.10;;
22046;SDS011;11187;49.412;20.956;2022-08-21T06:19:45;35.28;;;28.67;;
22046;SDS011;11187;49.412;20.956;2022-08-21T06:22:38;34.25;;;27.52;;
22046;SDS011;11187;49.412;20.956;2022-08-21T06:25:32;32.03;;;28.27;;
22046;SDS011;11187;49.412;20.956;2022-08-21T06:28:26;31.98;;;27.92;;
22046;SDS011;11187;49.412;20.956;2022-08-21T06:31:00;32.50;;;29.15;;
22046;SDS011;11187;49.412;20.956;2022-08-21T06:33:53;36.17;;;29.75;;
22046;SDS011;11187;49.412;20.956;2022-08-21T06:36:28;32.67;;;29.77;;
22046;SDS011;11187;49.412;20.956;2022-08-21T06:39:14;32.45;;;29.08;;
22046;SDS011;11187;49.412;20.956;2022-08-21T06:41:56;31.73;;;28.35;;
22046;SDS011;11187;49.412;20.956;2022-08-21T06:44:49;30.35;;;27.13;;
22046;SDS011;11187;49.412;20.956;2022-08-21T06:47:43;30.25;;;27.25;;
22046;SDS011;11187;49.412;20.956;2022-08-21T06:50:17;35.42;;;30.23;;
22046;SDS011;11187;49.412;20.956;2022-08-21T06:53:12;31.45;;;28.38;;
22046;SDS011;11187;49.412;20.956;2022-08-21T06:55:46;32.10;;;28.92;;
22046;SDS011;11187;49.412;20.956;2022-08-21T06:58:33;32.20;;;29.05;;
22046;SDS011;11187;49.412;20.956;2022-08-21T07:01:07;33.78;;;30.27;;
22046;SDS011;11187;49.412;20.956;2022-08-21T07:03:53;32.42;;;28.95;;
22046;SDS011;11187;49.412;20.956;2022-08-21T07:06:27;34.63;;;30.92;;
22046;SDS011;11187;49.412;20.956;2022-08-21T07:09:13;32.53;;;28.42;;
22046;SDS011;11187;49.412;20.956;2022-08-21T07:11:51;33.22;;;27.70;;
22046;SDS011;11187;49.412;20.956;2022-08-21T07:14:46;30.13;;;26.95;;
22046;SDS011;11187;49.412;20.956;2022-08-21T07:17:40;32.10;;;29.00;;
22046;SDS011;11187;49.412;20.956;2022-08-21T07:20:34;36.00;;;30.08;;
22046;SDS011;11187;49.412;20.956;2022-08-21T07:23:09;33.05;;;29.85;;
22046;SDS011;11187;49.412;20.956;2022-08-21T07:25:59;33.45;;;29.92;;
22046;SDS011;11187;49.412;20.956;2022-08-21T07:28:33;34.17;;;27.17;;
22046;SDS011;11187;49.412;20.956;2022-08-21T07:31:22;31.35;;;28.13;;
22046;SDS011;11187;49.412;20.956;2022-08-21T07:33:57;30.05;;;26.85;;
22046;SDS011;11187;49.412;20.956;2022-08-21T07:36:43;34.85;;;29.85;;
22046;SDS011;11187;49.412;20.956;2022-08-21T07:39:17;30.95;;;27.85;;
22046;SDS011;11187;49.412;20.956;2022-08-21T07:42:03;31.88;;;27.65;;
22046;SDS011;11187;49.412;20.956;2022-08-21T07:44:37;31.33;;;28.10;;
22046;SDS011;11187;49.412;20.956;2022-08-21T07:47:23;28.60;;;25.73;;
22046;SDS011;11187;49.412;20.956;2022-08-21T07:50:08;33.03;;;26.83;;
22046;SDS011;11187;49.412;20.956;2022-08-21T07:52:58;31.63;;;28.33;;
22046;SDS011;11187;49.412;20.956;2022-08-21T07:55:32;31.30;;;28.20;;
22046;SDS011;11187;49.412;20.956;2022-08-21T07:58:18;31.33;;;28.00;;
22046;SDS011;11187;49.412;20.956;2022-08-21T08:00:52;31.00;;;28.10;;
22046;SDS011;11187;49.412;20.956;2022-08-21T08:03:39;26.90;;;24.30;;
22046;SDS011;11187;49.412;20.956;2022-08-21T08:06:12;30.08;;;26.98;;
22046;SDS011;11187;49.412;20.956;2022-08-21T08:08:59;31.13;;;26.70;;
22046;SDS011;11187;49.412;20.956;2022-08-21T08:11:36;29.25;;;24.13;;
22046;SDS011;11187;49.412;20.956;2022-08-21T08:14:26;29.55;;;26.65;;
22046;SDS011;11187;49.412;20.956;2022-08-21T08:17:00;30.60;;;27.42;;
22046;SDS011;11187;49.412;20.956;2022-08-21T08:19:53;29.13;;;26.13;;
22046;SDS011;11187;49.412;20.956;2022-08-21T08:22:27;30.83;;;27.52;;
22046;SDS011;11187;49.412;20.956;2022-08-21T08:25:14;28.80;;;26.20;;
22046;SDS011;11187;49.412;20.956;2022-08-21T08:27:48;30.92;;;27.88;;
22046;SDS011;11187;49.412;20.956;2022-08-21T08:30:35;31.95;;;28.75;;
22046;SDS011;11187;49.412;20.956;2022-08-21T08:33:09;27.15;;;24.48;;
22046;SDS011;11187;49.412;20.956;2022-08-21T08:35:55;30.38;;;27.25;;
22046;SDS011;11187;49.412;20.956;2022-08-21T08:38:33;30.25;;;27.38;;
22046;SDS011;11187;49.412;20.956;2022-08-21T08:41:22;30.13;;;27.08;;
22046;SDS011;11187;49.412;20.956;2022-08-21T08:44:00;29.30;;;26.30;;
22046;SDS011;11187;49.412;20.956;2022-08-21T08:46:49;29.33;;;26.30;;
22046;SDS011;11187;49.412;20.956;2022-08-21T08:52:32;30.67;;;27.67;;
22046;SDS011;11187;49.412;20.956;2022-08-21T08:55:15;30.02;;;26.83;;
22046;SDS011;11187;49.412;20.956;2022-08-21T08:58:16;32.70;;;29.52;;
22046;SDS011;11187;49.412;20.956;2022-08-21T09:01:10;31.08;;;27.77;;
22046;SDS011;11187;49.412;20.956;2022-08-21T09:04:18;30.38;;;25.35;;
22046;SDS011;11187;49.412;20.956;2022-08-21T09:10:34;29.92;;;27.02;;
22046;SDS011;11187;49.412;20.956;2022-08-21T09:16:14;29.52;;;26.88;;
22046;SDS011;11187;49.412;20.956;2022-08-21T09:24:52;34.20;;;29.77;;
22046;SDS011;11187;49.412;20.956;2022-08-21T09:27:35;28.13;;;25.13;;
22046;SDS011;11187;49.412;20.956;2022-08-21T09:30:31;30.95;;;27.80;;
22046;SDS011;11187;49.412;20.956;2022-08-21T09:33:05;31.95;;;27.65;;
22046;SDS011;11187;49.412;20.956;2022-08-21T09:35:58;31.70;;;27.55;;
22046;SDS011;11187;49.412;20.956;2022-08-21T09:38:33;26.90;;;24.20;;
22046;SDS011;11187;49.412;20.956;2022-08-21T09:41:32;29.83;;;27.02;;
22046;SDS011;11187;49.412;20.956;2022-08-21T09:44:08;30.52;;;27.48;;
22046;SDS011;11187;49.412;20.956;2022-08-21T09:46:54;30.17;;;26.65;;
22046;SDS011;11187;49.412;20.956;2022-08-21T09:49:30;26.13;;;23.45;;
22046;SDS011;11187;49.412;20.956;2022-08-21T09:52:25;29.80;;;26.63;;
22046;SDS011;11187;49.412;20.956;2022-08-21T09:54:59;29.25;;;26.08;;
22046;SDS011;11187;49.412;20.956;2022-08-21T09:58:14;36.22;;;28.15;;
22046;SDS011;11187;49.412;20.956;2022-08-21T10:01:12;29.42;;;26.42;;
22046;SDS011;11187;49.412;20.956;2022-08-21T10:03:48;28.60;;;25.52;;
22046;SDS011;11187;49.412;20.956;2022-08-21T10:06:47;28.63;;;25.58;;
22046;SDS011;11187;49.412;20.956;2022-08-21T10:09:23;30.70;;;27.48;;
22046;SDS011;11187;49.412;20.956;2022-08-21T10:12:18;33.85;;;28.65;;
22046;SDS011;11187;49.412;20.956;2022-08-21T10:24:24;31.27;;;28.33;;
22046;SDS011;11187;49.412;20.956;2022-08-21T10:27:39;32.60;;;27.88;;
22046;SDS011;11187;49.412;20.956;2022-08-21T10:33:53;31.58;;;28.38;;
22046;SDS011;11187;49.412;20.956;2022-08-21T10:39:47;34.53;;;28.80;;
22046;SDS011;11187;49.412;20.956;2022-08-21T10:43:09;32.92;;;27.33;;
22046;SDS011;11187;49.412;20.956;2022-08-21T10:46:17;33.83;;;30.25;;
22046;SDS011;11187;49.412;20.956;2022-08-21T10:55:20;34.38;;;30.67;;
22046;SDS011;11187;49.412;20.956;2022-08-21T10:58:22;36.00;;;32.13;;
22046;SDS011;11187;49.412;20.956;2022-08-21T11:01:38;41.75;;;33.35;;
22046;SDS011;11187;49.412;20.956;2022-08-21T11:04:16;39.90;;;31.77;;
22046;SDS011;11187;49.412;20.956;2022-08-21T11:07:42;37.00;;;31.40;;
22046;SDS011;11187;49.412;20.956;2022-08-21T11:10:46;34.80;;;31.05;;
22046;SDS011;11187;49.412;20.956;2022-08-21T11:13:27;34.58;;;30.50;;
22046;SDS011;11187;49.412;20.956;2022-08-21T11:16:29;33.13;;;29.73;;
22046;SDS011;11187;49.412;20.956;2022-08-21T11:19:24;35.97;;;30.70;;
22046;SDS011;11187;49.412;20.956;2022-08-21T11:22:21;37.45;;;33.47;;
22046;SDS011;11187;49.412;20.956;2022-08-21T11:25:26;36.25;;;30.10;;
22046;SDS011;11187;49.412;20.956;2022-08-21T11:28:29;34.92;;;31.27;;
22046;SDS011;11187;49.412;20.956;2022-08-21T11:31:39;34.97;;;29.48;;
22046;SDS011;11187;49.412;20.956;2022-08-21T11:38:13;35.70;;;29.83;;
22046;SDS011;11187;49.412;20.956;2022-08-21T11:41:31;33.88;;;30.40;;
22046;SDS011;11187;49.412;20.956;2022-08-21T11:44:44;32.88;;;29.25;;
22046;SDS011;11187;49.412;20.956;2022-08-21T11:47:32;30.40;;;26.70;;
22046;SDS011;11187;49.412;20.956;2022-08-21T11:50:33;36.33;;;28.45;;
22046;SDS011;11187;49.412;20.956;2022-08-21T11:53:15;39.88;;;30.80;;
22046;SDS011;11187;49.412;20.956;2022-08-21T11:59:13;33.65;;;27.23;;
22046;SDS011;11187;49.412;20.956;2022-08-21T12:02:21;34.92;;;31.38;;
22046;SDS011;11187;49.412;20.956;2022-08-21T12:05:30;31.65;;;28.30;;
22046;SDS011;11187;49.412;20.956;2022-08-21T12:08:10;32.08;;;28.83;;
22046;SDS011;11187;49.412;20.956;2022-08-21T12:11:10;32.05;;;28.63;;
22046;SDS011;11187;49.412;20.956;2022-08-21T12:17:04;34.28;;;30.77;;
22046;SDS011;11187;49.412;20.956;2022-08-21T12:19:56;32.33;;;29.15;;
22046;SDS011;11187;49.412;20.956;2022-08-21T12:22:47;31.38;;;28.15;;
22046;SDS011;11187;49.412;20.956;2022-08-21T12:26:11;33.92;;;30.50;;
22046;SDS011;11187;49.412;20.956;2022-08-21T12:29:33;32.30;;;27.92;;
22046;SDS011;11187;49.412;20.956;2022-08-21T12:35:02;30.80;;;27.67;;
22046;SDS011;11187;49.412;20.956;2022-08-21T12:37:58;31.17;;;27.77;;
22046;SDS011;11187;49.412;20.956;2022-08-21T12:44:00;33.13;;;29.92;;
22046;SDS011;11187;49.412;20.956;2022-08-21T12:47:02;31.38;;;28.08;;
22046;SDS011;11187;49.412;20.956;2022-08-21T12:50:17;31.40;;;27.87;;
22046;SDS011;11187;49.412;20.956;2022-08-21T12:53:08;30.75;;;27.63;;
22046;SDS011;11187;49.412;20.956;2022-08-21T12:56:02;32.08;;;28.77;;
22046;SDS011;11187;49.412;20.956;2022-08-21T12:58:39;33.33;;;26.50;;
22046;SDS011;11187;49.412;20.956;2022-08-21T13:01:32;36.22;;;29.85;;
22046;SDS011;11187;49.412;20.956;2022-08-21T13:04:08;34.55;;;30.88;;
22046;SDS011;11187;49.412;20.956;2022-08-21T13:06:56;33.10;;;29.92;;
22046;SDS011;11187;49.412;20.956;2022-08-21T13:09:32;30.50;;;27.50;;
22046;SDS011;11187;49.412;20.956;2022-08-21T13:12:19;33.53;;;30.10;;
22046;SDS011;11187;49.412;20.956;2022-08-21T13:14:58;31.27;;;28.08;;
22046;SDS011;11187;49.412;20.956;2022-08-21T13:17:56;32.92;;;29.58;;
22046;SDS011;11187;49.412;20.956;2022-08-21T13:20:50;31.67;;;28.67;;
22046;SDS011;11187;49.412;20.956;2022-08-21T13:23:26;31.48;;;27.67;;
22046;SDS011;11187;49.412;20.956;2022-08-21T13:26:16;30.85;;;27.80;;
22046;SDS011;11187;49.412;20.956;2022-08-21T13:28:52;33.95;;;30.45;;
22046;SDS011;11187;49.412;20.956;2022-08-21T13:31:47;31.63;;;28.55;;
22046;SDS011;11187;49.412;20.956;2022-08-21T13:34:44;29.63;;;26.42;;
22046;SDS011;11187;49.412;20.956;2022-08-21T13:37:25;31.92;;;28.77;;
22046;SDS011;11187;49.412;20.956;2022-08-21T13:40:17;30.90;;;27.90;;
22046;SDS011;11187;49.412;20.956;2022-08-21T13:42:55;32.92;;;29.45;;
22046;SDS011;11187;49.412;20.956;2022-08-21T13:45:44;33.60;;;29.50;;
22046;SDS011;11187;49.412;20.956;2022-08-21T13:48:21;32.28;;;28.98;;
22046;SDS011;11187;49.412;20.956;2022-08-21T13:51:18;31.27;;;28.02;;
22046;SDS011;11187;49.412;20.956;2022-08-21T13:57:24;32.60;;;29.55;;
22046;SDS011;11187;49.412;20.956;2022-08-21T14:00:27;32.75;;;29.48;;
22046;SDS011;11187;49.412;20.956;2022-08-21T14:06:33;28.85;;;25.80;;
22046;SDS011;11187;49.412;20.956;2022-08-21T14:09:30;31.50;;;28.15;;
22046;SDS011;11187;49.412;20.956;2022-08-21T14:12:16;31.33;;;28.10;;
22046;SDS011;11187;49.412;20.956;2022-08-21T14:15:12;29.65;;;25.77;;
22046;SDS011;11187;49.412;20.956;2022-08-21T14:17:47;34.55;;;28.65;;
22046;SDS011;11187;49.412;20.956;2022-08-21T14:20:39;34.45;;;29.20;;
22046;SDS011;11187;49.412;20.956;2022-08-21T14:23:23;30.65;;;27.45;;
22046;SDS011;11187;49.412;20.956;2022-08-21T14:26:11;32.67;;;29.13;;
22046;SDS011;11187;49.412;20.956;2022-08-21T14:28:44;32.47;;;29.40;;
22046;SDS011;11187;49.412;20.956;2022-08-21T14:31:31;33.38;;;30.05;;
22046;SDS011;11187;49.412;20.956;2022-08-21T14:34:11;32.95;;;29.65;;
22046;SDS011;11187;49.412;20.956;2022-08-21T14:36:59;33.13;;;30.08;;
22046;SDS011;11187;49.412;20.956;2022-08-21T14:39:32;30.52;;;26.90;;
22046;SDS011;11187;49.412;20.956;2022-08-21T14:42:24;31.85;;;28.55;;
22046;SDS011;11187;49.412;20.956;2022-08-21T14:45:00;31.05;;;27.77;;
22046;SDS011;11187;49.412;20.956;2022-08-21T14:47:55;29.67;;;26.58;;
22046;SDS011;11187;49.412;20.956;2022-08-21T14:50:29;32.03;;;28.80;;
22046;SDS011;11187;49.412;20.956;2022-08-21T14:53:17;32.65;;;29.35;;
22046;SDS011;11187;49.412;20.956;2022-08-21T14:55:50;32.20;;;29.00;;
22046;SDS011;11187;49.412;20.956;2022-08-21T14:58:50;30.35;;;27.25;;
22046;SDS011;11187;49.412;20.956;2022-08-21T15:01:24;32.95;;;29.27;;
22046;SDS011;11187;49.412;20.956;2022-08-21T15:04:11;31.10;;;27.75;;
22046;SDS011;11187;49.412;20.956;2022-08-21T15:06:44;32.92;;;29.50;;
22046;SDS011;11187;49.412;20.956;2022-08-21T15:09:31;33.58;;;30.13;;
22046;SDS011;11187;49.412;20.956;2022-08-21T15:12:04;31.25;;;28.08;;
22046;SDS011;11187;49.412;20.956;2022-08-21T15:14:52;33.38;;;29.52;;
22046;SDS011;11187;49.412;20.956;2022-08-21T15:17:25;33.80;;;30.02;;
22046;SDS011;11187;49.412;20.956;2022-08-21T15:20:23;32.95;;;29.45;;
22046;SDS011;11187;49.412;20.956;2022-08-21T15:22:56;35.20;;;30.17;;
22046;SDS011;11187;49.412;20.956;2022-08-21T15:25:43;35.17;;;31.40;;
22046;SDS011;11187;49.412;20.956;2022-08-21T15:28:18;35.08;;;31.48;;
22046;SDS011;11187;49.412;20.956;2022-08-21T15:31:10;32.05;;;28.63;;
22046;SDS011;11187;49.412;20.956;2022-08-21T15:33:43;31.95;;;28.65;;
22046;SDS011;11187;49.412;20.956;2022-08-21T15:36:31;33.20;;;29.65;;
22046;SDS011;11187;49.412;20.956;2022-08-21T15:39:04;34.85;;;31.45;;
22046;SDS011;11187;49.412;20.956;2022-08-21T15:41:51;33.97;;;30.35;;
22046;SDS011;11187;49.412;20.956;2022-08-21T15:44:24;37.53;;;31.25;;
22046;SDS011;11187;49.412;20.956;2022-08-21T15:47:14;34.28;;;30.67;;
22046;SDS011;11187;49.412;20.956;2022-08-21T15:49:49;37.95;;;31.90;;
22046;SDS011;11187;49.412;20.956;2022-08-21T15:52:36;39.83;;;32.83;;
22046;SDS011;11187;49.412;20.956;2022-08-21T15:55:12;34.53;;;30.92;;
22046;SDS011;11187;49.412;20.956;2022-08-21T15:58:00;34.75;;;30.02;;
22046;SDS011;11187;49.412;20.956;2022-08-21T16:00:34;33.85;;;30.20;;
22046;SDS011;11187;49.412;20.956;2022-08-21T16:03:24;35.42;;;30.92;;
22046;SDS011;11187;49.412;20.956;2022-08-21T16:05:58;35.88;;;30.08;;
22046;SDS011;11187;49.412;20.956;2022-08-21T16:08:52;36.55;;;32.45;;
22046;SDS011;11187;49.412;20.956;2022-08-21T16:11:46;32.60;;;29.30;;
22046;SDS011;11187;49.412;20.956;2022-08-21T16:14:19;33.95;;;29.98;;
22046;SDS011;11187;49.412;20.956;2022-08-21T16:17:13;32.92;;;29.52;;
22046;SDS011;11187;49.412;20.956;2022-08-21T16:20:08;31.38;;;28.25;;
22046;SDS011;11187;49.412;20.956;2022-08-21T16:22:44;31.52;;;28.33;;
22046;SDS011;11187;49.412;20.956;2022-08-21T16:25:38;30.42;;;26.55;;
22046;SDS011;11187;49.412;20.956;2022-08-21T16:28:33;31.40;;;28.33;;
22046;SDS011;11187;49.412;20.956;2022-08-21T16:31:09;30.33;;;27.30;;
22046;SDS011;11187;49.412;20.956;2022-08-21T16:33:57;31.95;;;28.58;;
22046;SDS011;11187;49.412;20.956;2022-08-21T16:36:30;28.77;;;26.08;;
22046;SDS011;11187;49.412;20.956;2022-08-21T16:39:24;28.50;;;25.58;;
22046;SDS011;11187;49.412;20.956;2022-08-21T16:41:57;27.20;;;24.70;;
22046;SDS011;11187;49.412;20.956;2022-08-21T16:44:52;27.00;;;23.58;;
22046;SDS011;11187;49.412;20.956;2022-08-21T16:47:49;26.33;;;23.88;;
22046;SDS011;11187;49.412;20.956;2022-08-21T16:50:43;27.00;;;24.60;;
22046;SDS011;11187;49.412;20.956;2022-08-21T16:53:17;23.02;;;20.83;;
22046;SDS011;11187;49.412;20.956;2022-08-21T16:56:04;26.95;;;24.23;;